Bleiswijk, Netherlands
Current Conditions -  °F | °C
As of 1:55 PM on Friday 24 Oct 2014 (Local Time) from EHRD Reporting Station
Overcast Overcast  
Wind Chill: 54°   Ceiling: 700
Heat Index: 54°   Visibility: 5mi
Dew Point: 54°   Wind: 13mph
Humidity: 100%   Direction: 190°S
Pressure: 30.03"   Gusts: NA
Location:  52.01°N, 4.53°E
Report Text: EHRD 241155Z AUTO 19011KT 140V240 8000 SCT006 BKN007 OVC00912/12 Q1017 REDZ BECMG BKN012 TEMPO 4000
Loading
Personal Weather Stations






























Interactive Weather Map
Tropical Storm Tracking
New forecast layout! Learn more

10-Day Weather Forecast

Advertisements
Track Severe Weather on mobile